createdAt,value
2022-09-30T00:00:43.381Z,5.13
2022-09-30T00:03:10.850Z,4.78
2022-09-30T00:05:38.443Z,4.65
2022-09-30T00:08:05.715Z,4.65
2022-09-30T00:10:33.443Z,5.25
2022-09-30T00:13:00.844Z,4.80
2022-09-30T00:15:28.486Z,5.20
2022-09-30T00:17:55.968Z,4.93
2022-09-30T00:20:23.352Z,4.82
2022-09-30T00:22:50.603Z,4.72
2022-09-30T00:25:17.975Z,5.17
2022-09-30T00:27:45.266Z,5.10
2022-09-30T00:30:12.564Z,5.20
2022-09-30T00:32:39.952Z,4.93
2022-09-30T00:35:07.507Z,5.25
2022-09-30T00:37:34.892Z,5.20
2022-09-30T00:40:02.219Z,4.90
2022-09-30T00:42:30.812Z,5.22
2022-09-30T00:45:03.678Z,5.38
2022-09-30T00:47:33.436Z,5.35
2022-09-30T00:50:28.267Z,4.80
2022-09-30T00:52:57.206Z,5.60
2022-09-30T00:55:58.121Z,5.30
2022-09-30T00:58:30.359Z,5.40
2022-09-30T01:00:59.606Z,5.50
2022-09-30T01:03:26.880Z,5.50
2022-09-30T01:05:54.316Z,5.57
2022-09-30T01:08:21.543Z,5.70
2022-09-30T01:10:48.836Z,5.97
2022-09-30T01:13:17.987Z,5.55
2022-09-30T01:15:55.995Z,5.40
2022-09-30T01:18:37.570Z,5.72
2022-09-30T01:21:28.284Z,4.82
2022-09-30T01:24:12.165Z,5.68
2022-09-30T01:26:51.806Z,5.50
2022-09-30T01:29:44.391Z,5.27
2022-09-30T01:32:33.522Z,5.47
2022-09-30T01:35:44.626Z,6.05
2022-09-30T01:38:28.727Z,5.72
2022-09-30T01:41:06.906Z,5.85
2022-09-30T01:43:52.180Z,5.50
2022-09-30T01:46:44.560Z,5.75
2022-09-30T01:49:27.612Z,5.45
2022-09-30T01:52:00.192Z,5.55
2022-09-30T01:54:56.214Z,5.78
2022-09-30T01:58:02.884Z,6.17
2022-09-30T02:00:31.501Z,5.43
2022-09-30T02:03:02.199Z,6.30
2022-09-30T02:05:35.841Z,6.60
2022-09-30T02:08:10.756Z,5.85
2022-09-30T02:11:08.547Z,6.30
2022-09-30T02:13:42.602Z,5.85
2022-09-30T02:16:14.824Z,6.65
2022-09-30T02:18:47.572Z,6.18
2022-09-30T02:21:17.520Z,6.22
2022-09-30T02:23:44.956Z,6.23
2022-09-30T02:26:18.626Z,6.30
2022-09-30T02:28:54.808Z,6.47
2022-09-30T02:31:23.574Z,6.75
2022-09-30T02:33:56.713Z,6.90
2022-09-30T02:36:33.602Z,6.20
2022-09-30T02:39:10.673Z,6.65
2022-09-30T02:41:47.017Z,7.07
2022-09-30T02:44:14.960Z,7.05
2022-09-30T02:46:48.586Z,7.07
2022-09-30T02:49:24.288Z,7.27
2022-09-30T02:52:21.108Z,6.80
2022-09-30T02:54:55.326Z,6.75
2022-09-30T02:57:46.989Z,7.50
2022-09-30T03:00:14.434Z,6.97
2022-09-30T03:02:42.164Z,6.90
2022-09-30T03:05:10.250Z,7.50
2022-09-30T03:07:37.577Z,7.53
2022-09-30T03:10:15.488Z,8.05
2022-09-30T03:12:57.894Z,7.18
2022-09-30T03:15:25.419Z,7.30
2022-09-30T03:17:59.328Z,7.10
2022-09-30T03:20:55.811Z,7.28
2022-09-30T03:24:00.282Z,7.28
2022-09-30T03:26:46.903Z,6.50
2022-09-30T03:29:20.128Z,6.70
2022-09-30T03:32:09.527Z,6.30
2022-09-30T03:34:46.119Z,6.63
2022-09-30T03:37:23.328Z,6.05
2022-09-30T03:40:10.263Z,6.22
2022-09-30T03:42:50.028Z,5.93
2022-09-30T03:45:26.197Z,5.90
2022-09-30T03:47:54.209Z,5.90
2022-09-30T03:50:22.376Z,5.82
2022-09-30T03:52:49.697Z,4.90
2022-09-30T03:55:17.401Z,5.30
2022-09-30T03:57:44.867Z,5.38
2022-09-30T04:00:12.944Z,5.30
2022-09-30T04:02:40.532Z,4.85
2022-09-30T04:05:08.723Z,4.97
2022-09-30T04:07:36.275Z,5.13
2022-09-30T04:10:04.454Z,5.03
2022-09-30T04:12:32.025Z,5.60
2022-09-30T04:14:59.234Z,6.78
2022-09-30T04:17:26.606Z,6.28
2022-09-30T04:19:53.864Z,5.97
2022-09-30T04:22:24.258Z,6.60
2022-09-30T04:24:53.713Z,6.32
2022-09-30T04:27:21.002Z,6.32
2022-09-30T04:29:48.421Z,6.38
2022-09-30T04:32:15.705Z,6.70
2022-09-30T04:34:43.327Z,7.07
2022-09-30T04:37:11.277Z,6.28
2022-09-30T04:39:38.762Z,6.90
2022-09-30T04:42:06.466Z,6.68
2022-09-30T04:44:35.463Z,7.10
2022-09-30T04:47:02.755Z,7.13
2022-09-30T04:49:30.189Z,7.32
2022-09-30T04:51:57.562Z,6.75
2022-09-30T04:54:25.272Z,7.30
2022-09-30T04:56:52.529Z,6.70
2022-09-30T04:59:20.506Z,7.07
2022-09-30T05:01:47.980Z,7.63
2022-09-30T05:04:16.796Z,7.95
2022-09-30T05:06:44.250Z,8.38
2022-09-30T05:09:11.653Z,7.70
2022-09-30T05:11:42.715Z,7.85
2022-09-30T05:14:10.308Z,8.30
2022-09-30T05:16:37.806Z,9.02
2022-09-30T05:19:06.346Z,8.40
2022-09-30T05:21:34.379Z,7.87
2022-09-30T05:24:02.764Z,7.78
2022-09-30T05:26:30.309Z,7.85
2022-09-30T05:28:58.142Z,7.85
2022-09-30T05:31:26.980Z,7.10
2022-09-30T05:33:58.020Z,6.70
2022-09-30T05:36:27.182Z,7.43
2022-09-30T05:38:55.131Z,7.75
2022-09-30T05:41:23.597Z,8.27
2022-09-30T05:43:51.992Z,8.10
2022-09-30T05:46:25.877Z,7.37
2022-09-30T05:48:55.241Z,7.50
2022-09-30T05:51:23.000Z,7.35
2022-09-30T05:53:51.977Z,6.90
2022-09-30T05:56:20.000Z,6.72
2022-09-30T05:58:47.722Z,7.00
2022-09-30T06:01:15.691Z,7.23
2022-09-30T06:03:46.805Z,6.55
2022-09-30T06:06:14.757Z,6.85
2022-09-30T06:08:50.876Z,6.57
2022-09-30T06:11:24.314Z,6.22
2022-09-30T06:13:52.602Z,6.97
2022-09-30T06:16:26.206Z,6.95
2022-09-30T06:18:55.494Z,6.72
2022-09-30T06:21:26.239Z,6.20
2022-09-30T06:23:53.659Z,6.53
2022-09-30T06:26:21.346Z,7.10
2022-09-30T06:28:49.046Z,6.03
2022-09-30T06:31:17.737Z,6.35
2022-09-30T06:33:47.827Z,5.60
2022-09-30T06:36:17.669Z,6.10
2022-09-30T06:38:51.681Z,5.87
2022-09-30T06:41:19.273Z,5.68
2022-09-30T06:43:51.437Z,5.40
2022-09-30T06:46:30.982Z,5.75
2022-09-30T06:49:13.404Z,4.82
2022-09-30T06:51:42.691Z,4.90
2022-09-30T06:54:10.653Z,4.47
2022-09-30T06:56:38.462Z,3.83
2022-09-30T06:59:06.150Z,3.20
2022-09-30T07:01:33.704Z,3.30
2022-09-30T07:04:03.458Z,3.00
2022-09-30T07:06:31.414Z,2.30
2022-09-30T07:08:59.135Z,2.60
2022-09-30T07:11:27.522Z,2.50
2022-09-30T07:13:55.780Z,2.00
2022-09-30T07:16:35.328Z,2.28
2022-09-30T07:19:04.541Z,2.20
2022-09-30T07:21:32.870Z,2.17
2022-09-30T07:24:01.220Z,2.22
2022-09-30T07:26:29.107Z,2.08
2022-09-30T07:28:56.438Z,2.03
2022-09-30T07:31:33.100Z,2.07
2022-09-30T07:34:01.712Z,2.40
2022-09-30T07:36:34.119Z,1.90
2022-09-30T07:39:07.941Z,2.30
2022-09-30T07:41:37.878Z,2.00
2022-09-30T07:44:07.428Z,2.00
2022-09-30T07:46:36.440Z,1.90
2022-09-30T07:49:09.687Z,1.90
2022-09-30T07:51:38.869Z,2.00
2022-09-30T07:54:10.515Z,2.20
2022-09-30T07:59:39.500Z,2.25
2022-09-30T08:02:08.432Z,2.08
2022-09-30T08:04:41.544Z,2.00
2022-09-30T08:07:13.406Z,2.20
2022-09-30T08:09:43.549Z,2.40
2022-09-30T08:12:12.474Z,2.35
2022-09-30T08:14:40.632Z,2.20
2022-09-30T08:17:08.433Z,2.20
2022-09-30T08:19:37.505Z,2.33
2022-09-30T08:22:06.737Z,2.60
2022-09-30T08:24:35.263Z,2.05
2022-09-30T08:27:04.209Z,2.30
2022-09-30T08:32:20.771Z,2.28
2022-09-30T08:34:48.774Z,2.20
2022-09-30T08:37:16.489Z,2.50
2022-09-30T08:39:44.211Z,2.35
2022-09-30T08:42:47.125Z,2.28
2022-09-30T08:45:26.773Z,2.15
2022-09-30T08:48:23.139Z,2.10
2022-09-30T08:50:57.158Z,2.15
2022-09-30T08:53:31.020Z,2.33
2022-09-30T08:56:03.010Z,2.40
2022-09-30T08:58:44.360Z,2.20
2022-09-30T09:01:20.250Z,2.00
2022-09-30T09:03:52.210Z,2.20
2022-09-30T09:06:43.084Z,1.77
2022-09-30T09:09:24.995Z,1.60
2022-09-30T09:12:01.216Z,1.50
2022-09-30T09:14:50.953Z,1.90
2022-09-30T09:17:40.064Z,1.73
2022-09-30T09:20:20.215Z,2.47
2022-09-30T09:22:48.342Z,1.55
2022-09-30T09:25:22.077Z,1.80
2022-09-30T09:27:56.782Z,1.70
2022-09-30T09:30:25.900Z,1.63
2022-09-30T09:32:55.386Z,1.52
2022-09-30T09:36:01.808Z,1.70
2022-09-30T09:38:40.867Z,1.50
2022-09-30T09:41:56.423Z,1.60
2022-09-30T09:44:34.639Z,1.65
2022-09-30T09:47:16.716Z,1.90
2022-09-30T09:49:45.327Z,1.50
2022-09-30T09:52:12.674Z,1.55
2022-09-30T09:54:43.681Z,1.57
2022-09-30T09:57:13.862Z,1.42
2022-09-30T10:00:22.256Z,1.63
2022-09-30T10:03:09.734Z,1.35
2022-09-30T10:05:48.716Z,1.10
2022-09-30T10:08:23.900Z,1.50
2022-09-30T10:11:07.754Z,1.50
2022-09-30T10:13:39.263Z,1.40
2022-09-30T10:16:07.489Z,1.30
2022-09-30T10:18:36.972Z,1.25
2022-09-30T10:21:08.414Z,1.50
2022-09-30T10:23:40.027Z,1.30
2022-09-30T10:26:19.036Z,1.60
2022-09-30T10:28:54.999Z,1.30
2022-09-30T10:31:39.186Z,1.30
2022-09-30T10:34:26.171Z,1.30
2022-09-30T10:36:54.961Z,1.42
2022-09-30T10:39:30.649Z,1.60
2022-09-30T10:42:07.679Z,1.55
2022-09-30T10:44:57.554Z,1.50
2022-09-30T10:47:26.788Z,1.77
2022-09-30T10:50:05.866Z,1.58
2022-09-30T10:52:37.207Z,1.30
2022-09-30T10:55:15.750Z,1.70
2022-09-30T10:57:48.901Z,1.40
2022-09-30T11:00:23.140Z,1.40
2022-09-30T11:03:20.958Z,1.50
2022-09-30T11:05:56.643Z,1.55
2022-09-30T11:08:38.900Z,1.50
2022-09-30T11:11:12.676Z,1.45
2022-09-30T11:13:44.557Z,1.60
2022-09-30T11:16:20.418Z,1.50
2022-09-30T11:18:50.999Z,1.73
2022-09-30T11:21:27.007Z,1.30
2022-09-30T11:24:01.289Z,1.45
2022-09-30T11:26:54.817Z,1.60
2022-09-30T11:29:36.128Z,1.60
2022-09-30T11:32:33.770Z,1.45
2022-09-30T11:35:04.687Z,1.40
2022-09-30T11:38:12.065Z,1.48
2022-09-30T11:40:45.218Z,1.60
2022-09-30T11:43:18.945Z,1.70
2022-09-30T11:46:17.264Z,1.60
2022-09-30T11:49:24.295Z,1.40
2022-09-30T11:52:18.510Z,1.70
2022-09-30T11:55:15.183Z,1.40
2022-09-30T11:58:36.079Z,1.60
2022-09-30T12:01:26.577Z,1.50
2022-09-30T12:03:59.192Z,2.03
2022-09-30T12:06:31.072Z,1.98
2022-09-30T12:09:07.161Z,1.57
2022-09-30T12:11:57.507Z,1.50
2022-09-30T12:14:39.399Z,1.50
2022-09-30T12:17:11.221Z,1.50
2022-09-30T12:19:42.636Z,1.40
2022-09-30T12:22:16.432Z,2.00
2022-09-30T12:24:47.256Z,2.40
2022-09-30T12:27:15.691Z,2.20
2022-09-30T12:30:09.831Z,2.30
2022-09-30T12:33:14.720Z,2.53
2022-09-30T12:35:54.277Z,2.50
2022-09-30T12:39:06.778Z,2.10
2022-09-30T12:41:37.152Z,1.80
2022-09-30T12:44:19.641Z,2.00
2022-09-30T12:47:06.889Z,2.05
2022-09-30T12:49:34.350Z,1.67
2022-09-30T12:52:05.614Z,1.45
2022-09-30T12:54:41.479Z,1.40
2022-09-30T12:57:09.562Z,1.35
2022-09-30T12:59:45.543Z,1.23
2022-09-30T13:02:29.101Z,1.40
2022-09-30T13:04:56.531Z,1.30
2022-09-30T13:07:23.926Z,1.60
2022-09-30T13:10:02.697Z,1.60
2022-09-30T13:12:43.875Z,2.17
2022-09-30T13:15:39.083Z,1.60
2022-09-30T13:18:21.731Z,1.40
2022-09-30T13:21:10.928Z,1.65
2022-09-30T13:23:43.813Z,1.23
2022-09-30T13:26:32.789Z,1.40
2022-09-30T13:29:00.403Z,1.43
2022-09-30T13:31:51.692Z,1.70
2022-09-30T13:34:23.701Z,1.58
2022-09-30T13:36:51.011Z,1.48
2022-09-30T13:39:34.401Z,1.80
2022-09-30T13:42:12.956Z,1.90
2022-09-30T13:44:45.040Z,1.73
2022-09-30T13:47:19.356Z,1.45
2022-09-30T13:49:58.242Z,1.52
2022-09-30T13:52:28.291Z,1.60
2022-09-30T13:54:56.439Z,1.70
2022-09-30T13:57:27.996Z,1.65
2022-09-30T14:00:01.315Z,1.90
2022-09-30T14:02:33.357Z,2.17
2022-09-30T14:05:17.912Z,2.15
2022-09-30T14:08:08.179Z,1.60
2022-09-30T14:10:57.251Z,1.40
2022-09-30T14:13:43.071Z,1.50
2022-09-30T14:16:42.306Z,1.50
2022-09-30T14:19:43.292Z,1.60
2022-09-30T14:22:10.964Z,1.83
2022-09-30T14:24:40.310Z,1.27
2022-09-30T14:27:16.861Z,1.25
2022-09-30T14:29:59.389Z,1.30
2022-09-30T14:32:29.554Z,1.15
2022-09-30T14:34:57.946Z,1.30
2022-09-30T14:37:30.300Z,1.63
2022-09-30T14:39:58.044Z,1.27
2022-09-30T14:42:31.759Z,1.27
2022-09-30T14:45:04.749Z,1.35
2022-09-30T14:47:38.674Z,1.37
2022-09-30T14:50:10.647Z,1.35
2022-09-30T14:52:45.424Z,1.20
2022-09-30T14:55:30.587Z,2.75
2022-09-30T14:58:28.619Z,2.00
2022-09-30T15:01:12.683Z,1.50
2022-09-30T15:03:45.571Z,1.45
2022-09-30T15:06:27.014Z,1.75
2022-09-30T15:09:03.694Z,1.90
2022-09-30T15:11:31.868Z,1.52
2022-09-30T15:14:18.093Z,1.57
2022-09-30T15:16:52.749Z,1.30
2022-09-30T15:19:30.409Z,1.50
2022-09-30T15:22:02.093Z,1.63
2022-09-30T15:24:31.471Z,1.40
2022-09-30T15:26:59.622Z,1.77
2022-09-30T15:29:27.339Z,1.50
2022-09-30T15:32:15.352Z,1.60
2022-09-30T15:34:46.130Z,1.55
2022-09-30T15:37:22.283Z,1.90
2022-09-30T15:40:08.184Z,1.70
2022-09-30T15:42:45.606Z,1.60
2022-09-30T15:45:34.643Z,1.80
2022-09-30T15:48:07.819Z,2.10
2022-09-30T15:50:42.545Z,1.83
2022-09-30T15:53:25.144Z,2.17
2022-09-30T15:55:56.908Z,2.40
2022-09-30T15:58:38.174Z,2.78
2022-09-30T16:01:18.638Z,2.42
2022-09-30T16:04:05.561Z,2.10
2022-09-30T16:06:36.817Z,2.20
2022-09-30T16:09:06.869Z,2.10
2022-09-30T16:11:41.222Z,1.85
2022-09-30T16:14:10.990Z,1.90
2022-09-30T16:16:38.313Z,2.00
2022-09-30T16:19:05.856Z,2.37
2022-09-30T16:21:52.613Z,2.20
2022-09-30T16:24:23.406Z,2.88
2022-09-30T16:26:52.049Z,3.50
2022-09-30T16:29:19.422Z,3.90
2022-09-30T16:31:48.315Z,5.10
2022-09-30T16:34:22.176Z,5.07
2022-09-30T16:36:49.963Z,4.47
2022-09-30T16:39:17.470Z,4.13
2022-09-30T16:41:45.076Z,7.10
2022-09-30T16:44:12.501Z,6.77
2022-09-30T16:46:39.973Z,6.65
2022-09-30T16:49:17.914Z,5.03
2022-09-30T16:51:45.421Z,4.22
2022-09-30T16:54:12.775Z,4.28
2022-09-30T16:56:40.143Z,3.67
2022-09-30T16:59:13.593Z,3.80
2022-09-30T17:01:41.152Z,3.70
2022-09-30T17:04:09.859Z,4.07
2022-09-30T17:06:39.172Z,3.45
2022-09-30T17:09:06.496Z,4.07
2022-09-30T17:11:34.797Z,4.03
2022-09-30T17:14:03.348Z,4.50
2022-09-30T17:16:31.314Z,4.18
2022-09-30T17:18:59.105Z,3.95
2022-09-30T17:21:26.779Z,3.90
2022-09-30T17:23:54.709Z,4.07
2022-09-30T17:26:22.309Z,3.80
2022-09-30T17:28:49.954Z,4.13
2022-09-30T17:31:17.449Z,4.57
2022-09-30T17:33:44.947Z,4.57
2022-09-30T17:36:13.022Z,4.50
2022-09-30T17:38:40.313Z,4.80
2022-09-30T17:41:26.214Z,5.70
2022-09-30T17:43:53.773Z,5.30
2022-09-30T17:46:23.721Z,5.73
2022-09-30T17:48:55.045Z,5.30
2022-09-30T17:51:22.535Z,5.60
2022-09-30T17:53:49.970Z,5.93
2022-09-30T17:56:22.748Z,5.53
2022-09-30T17:59:00.424Z,7.40
2022-09-30T18:01:29.921Z,8.00
2022-09-30T18:04:01.137Z,8.65
2022-09-30T18:06:28.957Z,12.35
2022-09-30T18:08:56.452Z,13.65
2022-09-30T18:11:24.295Z,14.10
2022-09-30T18:13:58.717Z,10.30
2022-09-30T18:16:30.898Z,9.07
2022-09-30T18:18:58.747Z,8.55
2022-09-30T18:21:26.446Z,8.02
2022-09-30T18:23:54.428Z,7.67
2022-09-30T18:26:24.164Z,7.10
2022-09-30T18:28:55.482Z,7.40
2022-09-30T18:31:29.100Z,7.00
2022-09-30T18:33:56.580Z,6.85
2022-09-30T18:36:26.406Z,6.67
2022-09-30T18:38:54.247Z,6.75
2022-09-30T18:41:22.603Z,7.07
2022-09-30T18:43:50.822Z,8.75
2022-09-30T18:46:21.017Z,9.25
2022-09-30T18:48:50.126Z,6.60
2022-09-30T18:51:18.921Z,7.40
2022-09-30T18:53:46.866Z,7.03
2022-09-30T18:56:14.198Z,7.00
2022-09-30T18:58:41.577Z,7.05
2022-09-30T19:01:09.101Z,6.13
2022-09-30T19:03:36.876Z,7.05
2022-09-30T19:06:08.386Z,7.30
2022-09-30T19:08:35.946Z,8.05
2022-09-30T19:11:14.089Z,7.93
2022-09-30T19:13:43.149Z,8.40
2022-09-30T19:16:11.346Z,7.00
2022-09-30T19:18:39.553Z,6.43
2022-09-30T19:21:13.711Z,6.90
2022-09-30T19:23:41.290Z,6.65
2022-09-30T19:26:10.173Z,6.50
2022-09-30T19:28:40.271Z,6.20
2022-09-30T19:31:12.669Z,5.80
2022-09-30T19:33:50.079Z,6.80
2022-09-30T19:36:22.181Z,9.07
2022-09-30T19:38:50.761Z,8.03
2022-09-30T19:41:19.241Z,8.68
2022-09-30T19:43:49.704Z,9.63
2022-09-30T19:46:17.332Z,7.93
2022-09-30T19:48:45.423Z,8.73
2022-09-30T19:51:14.224Z,7.60
2022-09-30T19:53:46.572Z,7.75
2022-09-30T19:56:18.652Z,8.05
2022-09-30T19:58:47.748Z,7.70
2022-09-30T20:01:15.926Z,8.38
2022-09-30T20:03:43.215Z,8.77
2022-09-30T20:06:14.169Z,7.80
2022-09-30T20:08:42.996Z,8.48
2022-09-30T20:11:14.275Z,8.10
2022-09-30T20:13:41.981Z,7.20
2022-09-30T20:16:13.725Z,6.43
2022-09-30T20:18:42.116Z,5.90
2022-09-30T20:21:10.349Z,6.10
2022-09-30T20:23:40.889Z,5.90
2022-09-30T20:26:13.901Z,6.07
2022-09-30T20:28:42.239Z,6.37
2022-09-30T20:31:13.292Z,6.05
2022-09-30T20:33:40.957Z,6.35
2022-09-30T20:36:09.838Z,6.15
2022-09-30T20:38:38.508Z,6.47
2022-09-30T20:41:06.230Z,6.93
2022-09-30T20:43:33.747Z,5.57
2022-09-30T20:46:02.287Z,5.25
2022-09-30T20:48:34.410Z,5.65
2022-09-30T20:51:12.181Z,5.70
2022-09-30T20:53:39.907Z,5.33
2022-09-30T20:56:08.209Z,5.55
2022-09-30T20:58:35.805Z,5.78
2022-09-30T21:01:09.365Z,5.75
2022-09-30T21:03:38.254Z,5.78
2022-09-30T21:06:07.478Z,5.00
2022-09-30T21:08:43.161Z,5.25
2022-09-30T21:11:10.826Z,5.15
2022-09-30T21:13:42.919Z,5.47
2022-09-30T21:16:11.916Z,5.18
2022-09-30T21:18:39.404Z,5.40
2022-09-30T21:21:06.890Z,5.13
2022-09-30T21:23:34.972Z,4.88
2022-09-30T21:26:15.901Z,5.20
2022-09-30T21:28:48.218Z,5.03
2022-09-30T21:31:27.558Z,4.73
2022-09-30T21:33:58.786Z,4.90
2022-09-30T21:36:27.036Z,5.05
2022-09-30T21:38:55.049Z,5.40
2022-09-30T21:41:23.299Z,5.30
2022-09-30T21:43:50.583Z,5.20
2022-09-30T21:46:18.752Z,4.90
2022-09-30T21:48:46.343Z,6.28
2022-09-30T21:51:14.004Z,6.10
2022-09-30T21:53:41.513Z,5.68
2022-09-30T21:56:11.655Z,5.40
2022-09-30T21:58:39.389Z,4.68
2022-09-30T22:01:06.782Z,4.70
2022-09-30T22:03:37.915Z,4.95
2022-09-30T22:06:09.643Z,4.45
2022-09-30T22:08:40.427Z,4.77
2022-09-30T22:11:20.053Z,4.80
2022-09-30T22:13:47.445Z,5.15
2022-09-30T22:16:15.504Z,4.75
2022-09-30T22:18:43.050Z,5.15
2022-09-30T22:21:14.400Z,5.53
2022-09-30T22:23:42.299Z,4.90
2022-09-30T22:26:18.020Z,4.78
2022-09-30T22:28:45.968Z,5.82
2022-09-30T22:31:14.726Z,4.95
2022-09-30T22:34:00.689Z,5.07
2022-09-30T22:36:46.480Z,4.63
2022-09-30T22:39:13.814Z,5.20
2022-09-30T22:41:41.035Z,4.95
2022-09-30T22:44:08.888Z,5.32
2022-09-30T22:46:36.658Z,5.50
2022-09-30T22:49:04.444Z,6.38
2022-09-30T22:51:32.904Z,6.18
2022-09-30T22:54:01.464Z,5.95
2022-09-30T22:56:28.877Z,6.13
2022-09-30T22:58:56.336Z,6.03
2022-09-30T23:01:23.536Z,5.75
2022-09-30T23:03:54.339Z,6.22
2022-09-30T23:06:23.148Z,6.63
2022-09-30T23:08:50.857Z,6.63
2022-09-30T23:11:18.686Z,6.77
2022-09-30T23:13:49.880Z,6.20
2022-09-30T23:16:17.386Z,5.30
2022-09-30T23:18:47.483Z,4.70
2022-09-30T23:21:17.074Z,4.88
2022-09-30T23:23:44.804Z,4.27
2022-09-30T23:26:17.141Z,4.25
2022-09-30T23:28:44.607Z,4.20
2022-09-30T23:31:14.365Z,4.10
2022-09-30T23:33:50.385Z,3.70
2022-09-30T23:36:19.288Z,3.47
2022-09-30T23:38:46.668Z,3.58
2022-09-30T23:41:14.207Z,4.30
2022-09-30T23:43:48.483Z,4.00
2022-09-30T23:46:16.526Z,3.92
2022-09-30T23:48:45.954Z,3.87
2022-09-30T23:51:13.625Z,4.13
2022-09-30T23:53:42.535Z,3.97
2022-09-30T23:56:11.693Z,3.90
2022-09-30T23:58:39.043Z,3.70
